Harrison, Montana
Current Conditions -  °F | °C
As of 6:56 PM on Friday 24 Oct 2014 (Local Time) from KBZN Reporting Station
Overcast Overcast  
Wind Chill: 48°   Ceiling: 10000
Heat Index: 48°   Visibility: 10mi
Dew Point: 42°   Wind: 0mph
Humidity: 80%   Direction: NA
Pressure: 30.1"   Gusts: NA
Location:  45.7°N, 111.78°W
Report Text: KBZN 250056Z 00000KT 10SM FEW075 OVC100 09/06 A3010 RMK AO2 SLP186 T00890056
Loading
Personal Weather Stations






























Interactive Weather Map
Tropical Storm Tracking
New forecast layout! Learn more

10-Day Weather Forecast

Advertisements
Track Severe Weather on mobile